createdAt,value
2023-09-16T00:01:30.891Z,64.19
2023-09-16T00:04:25.101Z,64.03
2023-09-16T00:07:15.936Z,64.13
2023-09-16T00:10:09.466Z,64.34
2023-09-16T00:13:02.212Z,64.32
2023-09-16T00:15:55.804Z,64.31
2023-09-16T00:18:48.412Z,64.41
2023-09-16T00:21:41.594Z,64.48
2023-09-16T00:24:33.843Z,64.63
2023-09-16T00:27:26.714Z,64.64
2023-09-16T00:30:19.052Z,64.66
2023-09-16T00:33:11.364Z,64.77
2023-09-16T00:36:03.557Z,64.95
2023-09-16T00:38:55.856Z,65.23
2023-09-16T00:41:34.146Z,65.25
2023-09-16T00:44:26.388Z,65.12
2023-09-16T00:47:18.601Z,65.16
2023-09-16T00:50:14.019Z,65.18
2023-09-16T00:53:07.075Z,65.17
2023-09-16T00:55:59.494Z,65.24
2023-09-16T00:58:51.993Z,65.17
2023-09-16T01:01:51.322Z,65.31
2023-09-16T01:04:44.825Z,65.46
2023-09-16T01:07:38.297Z,65.54
2023-09-16T01:10:30.738Z,65.55
2023-09-16T01:13:23.268Z,65.78
2023-09-16T01:16:23.901Z,65.81
2023-09-16T01:19:31.722Z,65.81
2023-09-16T01:22:24.422Z,65.91
2023-09-16T01:25:17.364Z,66.12
2023-09-16T01:28:09.945Z,66.26
2023-09-16T01:31:04.047Z,66.33
2023-09-16T01:33:58.139Z,66.56
2023-09-16T01:36:54.616Z,66.51
2023-09-16T01:39:50.782Z,66.39
2023-09-16T01:42:43.859Z,66.51
2023-09-16T01:45:44.785Z,66.55
2023-09-16T01:48:51.972Z,66.71
2023-09-16T01:51:44.344Z,66.84
2023-09-16T01:54:37.015Z,67.15
2023-09-16T01:57:29.368Z,67.29
2023-09-16T02:00:21.735Z,67.27
2023-09-16T02:03:13.952Z,67.20
2023-09-16T02:06:07.685Z,67.30
2023-09-16T02:08:59.920Z,67.37
2023-09-16T02:11:52.855Z,67.61
2023-09-16T02:14:45.379Z,67.60
2023-09-16T02:17:37.673Z,67.65
2023-09-16T02:20:29.888Z,67.68
2023-09-16T02:23:23.168Z,67.58
2023-09-16T02:26:15.413Z,67.69
2023-09-16T02:29:07.816Z,67.83
2023-09-16T02:32:00.164Z,68.00
2023-09-16T02:34:52.342Z,68.25
2023-09-16T02:37:44.562Z,68.31
2023-09-16T02:40:40.877Z,68.51
2023-09-16T02:43:33.398Z,68.48
2023-09-16T02:46:25.673Z,68.60
2023-09-16T02:49:18.013Z,68.73
2023-09-16T02:52:10.343Z,68.87
2023-09-16T02:55:02.728Z,69.03
2023-09-16T02:57:55.008Z,68.82
2023-09-16T03:00:48.526Z,68.82
2023-09-16T03:03:41.399Z,68.81
2023-09-16T03:06:33.760Z,68.94
2023-09-16T03:09:25.991Z,68.96
2023-09-16T03:12:18.199Z,69.03
2023-09-16T03:15:12.379Z,68.93
2023-09-16T03:18:08.386Z,69.02
2023-09-16T03:20:53.496Z,69.03
2023-09-16T03:23:46.309Z,68.98
2023-09-16T03:26:38.583Z,68.96
2023-09-16T03:29:21.373Z,69.05
2023-09-16T03:32:13.627Z,69.21
2023-09-16T03:35:06.440Z,69.42
2023-09-16T03:37:58.638Z,69.46
2023-09-16T03:40:51.923Z,69.63
2023-09-16T03:43:44.828Z,69.69
2023-09-16T03:46:38.291Z,69.71
2023-09-16T03:49:30.527Z,69.65
2023-09-16T03:52:22.906Z,69.50
2023-09-16T03:55:15.773Z,69.63
2023-09-16T03:58:08.166Z,69.74
2023-09-16T04:00:53.620Z,69.78
2023-09-16T04:03:45.925Z,70.01
2023-09-16T04:06:38.253Z,70.20
2023-09-16T04:09:30.456Z,70.36
2023-09-16T04:12:22.700Z,70.58
2023-09-16T04:15:15.493Z,70.79
2023-09-16T04:18:08.380Z,70.91
2023-09-16T04:21:00.675Z,70.95
2023-09-16T04:23:52.911Z,70.63
2023-09-16T04:26:45.298Z,70.81
2023-09-16T04:29:37.675Z,71.19
2023-09-16T04:32:29.863Z,71.24
2023-09-16T04:35:22.595Z,71.46
2023-09-16T04:38:14.962Z,71.49
2023-09-16T04:41:07.520Z,71.71
2023-09-16T04:44:00.117Z,71.93
2023-09-16T04:46:54.413Z,72.19
2023-09-16T04:49:47.011Z,72.40
2023-09-16T04:52:39.260Z,72.40
2023-09-16T04:55:31.470Z,72.42
2023-09-16T04:58:23.650Z,72.48
2023-09-16T05:01:16.022Z,72.52
2023-09-16T05:04:08.342Z,72.55
2023-09-16T05:07:00.686Z,72.48
2023-09-16T05:09:52.924Z,72.40
2023-09-16T05:12:45.823Z,72.43
2023-09-16T05:15:38.145Z,72.59
2023-09-16T05:18:30.350Z,72.67
2023-09-16T05:21:22.774Z,72.94
2023-09-16T05:24:14.980Z,71.85
2023-09-16T05:27:08.125Z,70.21
2023-09-16T05:30:03.046Z,68.21
2023-09-16T05:32:55.846Z,65.94
2023-09-16T05:35:48.617Z,63.30
2023-09-16T05:38:40.865Z,63.47
2023-09-16T05:41:33.776Z,62.44
2023-09-16T05:44:26.010Z,60.19
2023-09-16T05:47:18.539Z,58.55
2023-09-16T05:50:11.593Z,58.65
2023-09-16T05:53:05.798Z,59.46
2023-09-16T05:55:56.532Z,60.33
2023-09-16T05:58:48.851Z,61.03
2023-09-16T06:01:41.244Z,61.31
2023-09-16T06:04:34.783Z,61.99
2023-09-16T06:07:27.233Z,62.60
2023-09-16T06:10:19.520Z,63.27
2023-09-16T06:13:11.978Z,63.72
2023-09-16T06:16:05.965Z,64.15
2023-09-16T06:18:56.944Z,64.35
2023-09-16T06:21:50.207Z,64.62
2023-09-16T06:24:42.463Z,64.95
2023-09-16T06:27:34.901Z,65.13
2023-09-16T06:30:27.204Z,65.34
2023-09-16T06:33:19.456Z,65.45
2023-09-16T06:36:11.755Z,65.21
2023-09-16T06:39:06.295Z,65.83
2023-09-16T06:41:58.507Z,66.12
2023-09-16T06:45:10.841Z,66.16
2023-09-16T06:48:03.186Z,65.89
2023-09-16T06:50:55.635Z,65.79
2023-09-16T06:53:47.899Z,65.73
2023-09-16T06:56:40.092Z,65.91
2023-09-16T06:59:32.412Z,65.66
2023-09-16T07:02:24.872Z,65.70
2023-09-16T07:05:17.124Z,65.60
2023-09-16T07:08:09.392Z,65.15
2023-09-16T07:11:01.608Z,65.38
2023-09-16T07:13:54.991Z,65.07
2023-09-16T07:16:47.230Z,65.36
2023-09-16T07:19:39.583Z,65.39
2023-09-16T07:22:31.796Z,65.10
2023-09-16T07:25:24.071Z,65.06
2023-09-16T07:28:16.389Z,65.46
2023-09-16T07:31:08.678Z,65.47
2023-09-16T07:34:01.125Z,65.01
2023-09-16T07:36:44.038Z,64.73
2023-09-16T07:39:16.257Z,64.39
2023-09-16T07:42:08.889Z,64.14
2023-09-16T07:45:01.094Z,64.44
2023-09-16T07:47:54.211Z,64.40
2023-09-16T07:50:46.801Z,64.04
2023-09-16T07:53:38.999Z,63.72
2023-09-16T07:56:32.041Z,63.42
2023-09-16T07:59:24.387Z,63.54
2023-09-16T08:02:16.764Z,64.33
2023-09-16T08:05:09.979Z,61.08
2023-09-16T08:08:02.235Z,54.23
2023-09-16T08:10:54.608Z,52.06
2023-09-16T08:13:47.500Z,49.73
2023-09-16T08:16:40.511Z,45.65
2023-09-16T08:19:33.126Z,41.71
2023-09-16T08:22:25.351Z,38.63
2023-09-16T08:25:17.670Z,36.60
2023-09-16T08:28:10.280Z,34.16
2023-09-16T08:31:02.550Z,31.99
2023-09-16T08:33:56.451Z,30.59
2023-09-16T08:36:47.237Z,28.97
2023-09-16T08:39:39.557Z,28.16
2023-09-16T08:42:39.057Z,27.24
2023-09-16T08:45:34.825Z,26.24
2023-09-16T08:48:32.792Z,25.03
2023-09-16T08:51:11.018Z,23.96
2023-09-16T08:54:06.145Z,22.73
2023-09-16T08:56:58.849Z,21.92
2023-09-16T08:59:53.893Z,21.46
2023-09-16T09:02:47.120Z,20.52
2023-09-16T09:05:40.621Z,20.25
2023-09-16T09:08:34.151Z,20.08
2023-09-16T09:11:27.625Z,19.56
2023-09-16T09:14:16.178Z,19.10
2023-09-16T09:17:11.683Z,18.95
2023-09-16T09:20:04.857Z,18.25
2023-09-16T09:22:58.524Z,17.43
2023-09-16T09:25:50.864Z,17.88
2023-09-16T09:28:45.350Z,17.72
2023-09-16T09:31:37.766Z,17.05
2023-09-16T09:34:32.109Z,16.91
2023-09-16T09:37:24.621Z,17.10
2023-09-16T09:40:17.919Z,16.73
2023-09-16T09:43:10.557Z,16.44
2023-09-16T09:46:03.505Z,16.19
2023-09-16T09:48:56.769Z,15.43
2023-09-16T09:51:49.702Z,15.83
2023-09-16T09:54:41.583Z,15.71
2023-09-16T09:57:17.021Z,15.67
2023-09-16T10:00:11.329Z,15.37
2023-09-16T10:03:04.426Z,15.06
2023-09-16T10:05:39.242Z,14.62
2023-09-16T10:08:32.632Z,14.41
2023-09-16T10:11:28.920Z,14.33
2023-09-16T10:14:09.892Z,13.96
2023-09-16T10:16:44.865Z,13.84
2023-09-16T10:19:35.640Z,14.11
2023-09-16T10:22:28.127Z,14.14
2023-09-16T10:25:21.916Z,14.29
2023-09-16T10:28:14.641Z,14.18
2023-09-16T10:31:07.067Z,14.49
2023-09-16T10:33:48.142Z,14.25
2023-09-16T10:36:40.661Z,14.02
2023-09-16T10:39:34.809Z,14.05
2023-09-16T10:42:29.101Z,13.97
2023-09-16T10:45:22.564Z,13.86
2023-09-16T10:48:14.767Z,13.38
2023-09-16T10:51:13.737Z,13.56
2023-09-16T10:53:52.602Z,13.94
2023-09-16T10:56:46.157Z,13.61
2023-09-16T10:59:39.455Z,13.67
2023-09-16T11:02:43.366Z,13.86
2023-09-16T11:05:39.059Z,14.06
2023-09-16T11:08:33.631Z,13.70
2023-09-16T11:11:26.662Z,13.65
2023-09-16T11:14:19.230Z,13.84
2023-09-16T11:17:16.263Z,13.82
2023-09-16T11:20:23.209Z,13.51
2023-09-16T11:23:15.832Z,13.74
2023-09-16T11:26:08.433Z,14.01
2023-09-16T11:29:00.680Z,14.19
2023-09-16T11:31:55.658Z,14.07
2023-09-16T11:34:47.967Z,13.79
2023-09-16T11:37:40.207Z,13.73
2023-09-16T11:40:34.060Z,13.59
2023-09-16T11:43:26.380Z,13.35
2023-09-16T11:46:18.753Z,13.13
2023-09-16T11:49:11.185Z,13.46
2023-09-16T11:52:03.923Z,13.46
2023-09-16T11:54:57.587Z,13.24
2023-09-16T11:57:50.762Z,13.39
2023-09-16T12:00:42.981Z,13.54
2023-09-16T12:03:36.301Z,13.42
2023-09-16T12:06:29.351Z,13.75
2023-09-16T12:09:23.935Z,13.91
2023-09-16T12:12:16.769Z,14.32
2023-09-16T12:15:08.232Z,14.32
2023-09-16T12:18:00.824Z,14.22
2023-09-16T12:20:54.523Z,14.42
2023-09-16T12:23:49.250Z,14.44
2023-09-16T12:26:41.746Z,14.84
2023-09-16T12:29:35.304Z,14.90
2023-09-16T12:32:27.610Z,14.97
2023-09-16T12:35:19.982Z,15.15
2023-09-16T12:38:12.281Z,15.62
2023-09-16T12:41:05.141Z,16.75
2023-09-16T12:43:58.757Z,17.37
2023-09-16T12:46:51.165Z,17.69
2023-09-16T12:49:44.580Z,17.62
2023-09-16T12:52:27.070Z,18.18
2023-09-16T12:55:19.538Z,18.73
2023-09-16T12:58:12.970Z,20.45
2023-09-16T13:01:05.248Z,21.67
2023-09-16T13:03:57.524Z,23.04
2023-09-16T13:06:50.353Z,24.31
2023-09-16T13:09:42.717Z,25.13
2023-09-16T13:12:36.536Z,26.06
2023-09-16T13:15:29.713Z,26.62
2023-09-16T13:18:22.112Z,27.18
2023-09-16T13:21:14.396Z,28.04
2023-09-16T13:24:07.082Z,28.52
2023-09-16T13:26:59.607Z,28.99
2023-09-16T13:30:10.521Z,29.65
2023-09-16T13:33:02.763Z,30.08
2023-09-16T13:35:54.991Z,30.64
2023-09-16T13:38:48.310Z,31.18
2023-09-16T13:41:27.691Z,31.51
2023-09-16T13:44:19.877Z,32.21
2023-09-16T13:47:14.652Z,32.54
2023-09-16T13:50:08.785Z,32.76
2023-09-16T13:52:43.766Z,33.18
2023-09-16T13:55:36.372Z,33.63
2023-09-16T13:58:29.411Z,33.86
2023-09-16T14:01:25.307Z,34.26
2023-09-16T14:04:17.553Z,34.52
2023-09-16T14:07:09.958Z,34.78
2023-09-16T14:10:02.186Z,34.94
2023-09-16T14:12:54.861Z,35.24
2023-09-16T14:15:47.165Z,35.46
2023-09-16T14:18:39.322Z,35.84
2023-09-16T14:21:31.515Z,36.20
2023-09-16T14:24:24.776Z,36.31
2023-09-16T14:27:16.992Z,36.58
2023-09-16T14:30:10.986Z,36.69
2023-09-16T14:33:03.440Z,36.75
2023-09-16T14:35:55.619Z,37.00
2023-09-16T14:38:49.752Z,37.35
2023-09-16T14:41:42.235Z,37.47
2023-09-16T14:44:37.199Z,37.69
2023-09-16T14:47:29.613Z,37.73
2023-09-16T14:50:21.900Z,37.61
2023-09-16T14:53:14.124Z,37.80
2023-09-16T14:56:06.551Z,37.90
2023-09-16T14:58:58.817Z,37.80
2023-09-16T15:01:51.088Z,37.96
2023-09-16T15:04:43.301Z,38.19
2023-09-16T15:07:35.549Z,38.49
2023-09-16T15:10:27.826Z,38.62
2023-09-16T15:13:20.102Z,38.76
2023-09-16T15:16:12.412Z,38.90
2023-09-16T15:19:04.722Z,39.37
2023-09-16T15:21:57.054Z,39.41
2023-09-16T15:24:49.449Z,39.47
2023-09-16T15:27:41.671Z,39.43
2023-09-16T15:30:33.879Z,39.59
2023-09-16T15:33:26.370Z,39.83
2023-09-16T15:36:18.634Z,39.70
2023-09-16T15:39:10.875Z,39.95
2023-09-16T15:42:03.147Z,39.95
2023-09-16T15:44:38.175Z,40.12
2023-09-16T15:47:30.396Z,40.08
2023-09-16T15:50:23.130Z,40.35
2023-09-16T15:53:15.444Z,40.72
2023-09-16T15:56:07.640Z,40.85
2023-09-16T15:59:04.475Z,41.09
2023-09-16T16:01:56.749Z,41.16
2023-09-16T16:04:45.359Z,41.38
2023-09-16T16:10:30.688Z,42.02
2023-09-16T16:13:22.970Z,42.52
2023-09-16T16:16:15.948Z,43.16
2023-09-16T16:19:10.900Z,43.48
2023-09-16T16:22:04.321Z,43.81
2023-09-16T16:24:56.761Z,44.07
2023-09-16T16:27:28.960Z,44.21
2023-09-16T16:30:21.149Z,44.47
2023-09-16T16:33:13.448Z,44.76
2023-09-16T16:36:06.248Z,45.22
2023-09-16T16:38:58.440Z,45.46
2023-09-16T16:41:50.598Z,45.63
2023-09-16T16:44:42.806Z,45.81
2023-09-16T16:47:35.152Z,46.15
2023-09-16T16:50:27.555Z,46.44
2023-09-16T16:53:19.776Z,46.93
2023-09-16T16:56:11.957Z,47.45
2023-09-16T16:59:07.057Z,47.55
2023-09-16T17:02:06.414Z,47.90
2023-09-16T17:04:58.747Z,48.38
2023-09-16T17:07:51.051Z,48.81
2023-09-16T17:10:43.337Z,49.23
2023-09-16T17:13:36.745Z,49.58
2023-09-16T17:16:29.381Z,49.99
2023-09-16T17:19:21.709Z,50.09
2023-09-16T17:22:14.759Z,50.65
2023-09-16T17:25:08.358Z,50.91
2023-09-16T17:28:00.588Z,51.34
2023-09-16T17:30:53.015Z,51.77
2023-09-16T17:33:45.287Z,52.09
2023-09-16T17:36:37.898Z,52.68
2023-09-16T17:39:31.425Z,53.17
2023-09-16T17:42:23.704Z,53.63
2023-09-16T17:45:15.956Z,54.51
2023-09-16T17:48:08.750Z,55.02
2023-09-16T17:51:01.132Z,55.33
2023-09-16T17:53:53.417Z,56.04
2023-09-16T17:56:45.818Z,56.28
2023-09-16T17:59:38.044Z,56.39
2023-09-16T18:02:30.441Z,56.81
2023-09-16T18:05:22.956Z,57.12
2023-09-16T18:08:15.194Z,57.31
2023-09-16T18:10:57.563Z,57.45
2023-09-16T18:13:49.890Z,57.57
2023-09-16T18:16:42.407Z,57.70
2023-09-16T18:19:34.771Z,58.20
2023-09-16T18:22:27.143Z,58.33
2023-09-16T18:25:19.683Z,58.74
2023-09-16T18:28:11.914Z,58.88
2023-09-16T18:31:04.801Z,59.18
2023-09-16T18:33:57.108Z,59.50
2023-09-16T18:36:49.380Z,59.57
2023-09-16T18:39:42.119Z,59.70
2023-09-16T18:42:34.916Z,59.87
2023-09-16T18:45:27.080Z,59.74
2023-09-16T18:48:20.232Z,60.11
2023-09-16T18:51:12.462Z,60.27
2023-09-16T18:54:05.160Z,60.36
2023-09-16T18:56:57.581Z,60.37
2023-09-16T18:59:49.754Z,60.56
2023-09-16T19:02:42.081Z,60.61
2023-09-16T19:05:36.404Z,60.85
2023-09-16T19:08:11.563Z,60.88
2023-09-16T19:11:04.631Z,61.13
2023-09-16T19:13:57.627Z,61.16
2023-09-16T19:16:33.537Z,61.32
2023-09-16T19:19:25.882Z,61.41
2023-09-16T19:22:19.150Z,61.58
2023-09-16T19:25:12.174Z,61.73
2023-09-16T19:28:04.645Z,61.75
2023-09-16T19:30:57.047Z,61.76
2023-09-16T19:33:49.527Z,61.94
2023-09-16T19:36:41.920Z,62.13
2023-09-16T19:39:34.105Z,62.17
2023-09-16T19:42:26.489Z,62.46
2023-09-16T19:45:18.719Z,62.51
2023-09-16T19:48:11.073Z,62.63
2023-09-16T19:51:04.507Z,62.55
2023-09-16T19:53:56.760Z,62.63
2023-09-16T19:57:39.177Z,62.85
2023-09-16T20:00:35.819Z,62.86
2023-09-16T20:03:26.556Z,62.95
2023-09-16T20:06:19.757Z,63.11
2023-09-16T20:09:11.970Z,63.25
2023-09-16T20:12:04.360Z,63.21
2023-09-16T20:14:56.711Z,63.30
2023-09-16T20:17:49.158Z,63.21
2023-09-16T20:20:41.794Z,63.30
2023-09-16T20:23:34.004Z,63.26
2023-09-16T20:26:26.656Z,63.29
2023-09-16T20:29:19.201Z,63.42
2023-09-16T20:32:12.409Z,63.59
2023-09-16T20:35:04.805Z,63.76
2023-09-16T20:37:59.114Z,63.76
2023-09-16T20:40:49.824Z,63.89
2023-09-16T20:43:42.065Z,64.23
2023-09-16T20:46:34.390Z,64.25
2023-09-16T20:49:26.870Z,64.28
2023-09-16T20:52:19.090Z,64.36
2023-09-16T20:55:12.084Z,64.58
2023-09-16T20:58:04.953Z,64.71
2023-09-16T21:00:58.387Z,64.65
2023-09-16T21:03:50.986Z,64.69
2023-09-16T21:06:45.083Z,64.81
2023-09-16T21:09:37.302Z,64.89
2023-09-16T21:12:29.761Z,64.99
2023-09-16T21:15:22.384Z,65.02
2023-09-16T21:18:15.127Z,65.05
2023-09-16T21:21:07.614Z,65.20
2023-09-16T21:23:59.873Z,65.33
2023-09-16T21:26:52.965Z,65.48
2023-09-16T21:29:45.223Z,65.60
2023-09-16T21:32:37.710Z,65.77
2023-09-16T21:35:30.262Z,65.81
2023-09-16T21:38:22.580Z,65.67
2023-09-16T21:41:14.840Z,65.77
2023-09-16T21:44:07.532Z,65.79
2023-09-16T21:46:59.836Z,65.83
2023-09-16T21:49:52.065Z,65.92
2023-09-16T21:52:45.749Z,65.98
2023-09-16T21:55:38.098Z,66.28
2023-09-16T21:58:30.430Z,66.44
2023-09-16T22:01:22.926Z,66.47
2023-09-16T22:04:15.336Z,66.42
2023-09-16T22:07:07.739Z,66.45
2023-09-16T22:09:59.937Z,66.56
2023-09-16T22:12:52.655Z,66.57
2023-09-16T22:15:44.978Z,66.75
2023-09-16T22:18:37.179Z,66.90
2023-09-16T22:21:29.367Z,66.94
2023-09-16T22:24:21.970Z,66.96
2023-09-16T22:27:14.200Z,66.96
2023-09-16T22:30:10.819Z,67.23
2023-09-16T22:33:03.495Z,67.32
2023-09-16T22:35:55.806Z,67.50
2023-09-16T22:38:48.272Z,67.45
2023-09-16T22:41:40.827Z,67.43
2023-09-16T22:44:33.036Z,67.53
2023-09-16T22:47:25.304Z,67.63
2023-09-16T22:50:17.676Z,67.78
2023-09-16T22:53:09.975Z,67.86
2023-09-16T22:56:02.349Z,67.95
2023-09-16T22:58:54.808Z,67.85
2023-09-16T23:01:47.082Z,68.07
2023-09-16T23:04:39.328Z,68.23
2023-09-16T23:07:31.516Z,68.20
2023-09-16T23:10:12.929Z,68.13
2023-09-16T23:13:05.294Z,68.22
2023-09-16T23:15:41.709Z,68.34
2023-09-16T23:18:33.896Z,68.36
2023-09-16T23:21:26.054Z,68.49
2023-09-16T23:24:18.242Z,68.52
2023-09-16T23:27:10.496Z,68.58
2023-09-16T23:30:03.757Z,68.67
2023-09-16T23:32:55.960Z,68.78
2023-09-16T23:35:48.141Z,68.78
2023-09-16T23:38:40.321Z,68.89
2023-09-16T23:41:32.640Z,69.00
2023-09-16T23:44:24.796Z,69.16
2023-09-16T23:47:17.061Z,69.20
2023-09-16T23:50:11.581Z,69.09
2023-09-16T23:53:04.326Z,69.14
2023-09-16T23:55:56.548Z,69.06
2023-09-16T23:58:48.823Z,68.92
